This is the latest recevied weather packets stored in our database for station/object DM0MR. If no packets are shown the sender has not sent any weather packets the latest 10 day(s).
| Time | Temp. | Humidity | Pressure | Rain* | Wind** | Luminosity | Snow |
|---|---|---|---|---|---|---|---|
| 1787450882 | 10° C | 97% | 1019.5 hPa | 0 mm | - | - | - |
| 1787449982 | 10° C | 97% | 1019.4 hPa | 0 mm | - | - | - |
| 1787448181 | 10.56° C | 96% | 1019.1 hPa | 0 mm | - | - | - |
| 1787445482 | 10.56° C | 97% | 1019.2 hPa | 0 mm | - | - | - |
| 1787444582 | 10.56° C | 97% | 1019.1 hPa | 0 mm | - | - | - |
| 1787442783 | 10.56° C | 97% | 1019 hPa | 0 mm | - | - | - |
| 1787441881 | 10.56° C | 96% | 1019.1 hPa | 0 mm | - | - | - |
| 1787440082 | 11.67° C | 95% | 1018.9 hPa | 0 mm | - | - | - |
| 1787439183 | 11.67° C | 95% | 1018.8 hPa | 0 mm | - | - | - |
| 1787438282 | 11.11° C | 96% | 1018.7 hPa | 0 mm | - | - | - |
| 1787437383 | 11.11° C | 96% | 1018.7 hPa | 0 mm | - | - | - |
| 1787436482 | 11.11° C | 96% | 1018.6 hPa | 0 mm | - | - | - |
| 1787433781 | 11.67° C | 95% | 1018.3 hPa | 0 mm | - | - | - |
| 1787432882 | 11.67° C | 94% | 1018 hPa | 0 mm | - | - | - |
| 1787431983 | 12.22° C | 93% | 1017.9 hPa | 0 mm | - | - | - |
| 1787431082 | 12.22° C | 93% | 1017.9 hPa | 0 mm | - | - | - |
| 1787429281 | 12.22° C | 91% | 1017.7 hPa | 0 mm | - | - | - |
| 1787428382 | 12.78° C | 90% | 1017.6 hPa | 0 mm | - | - | - |
| 1787427483 | 12.78° C | 90% | 1017.4 hPa | 0 mm | - | - | - |
| 1787426582 | 12.78° C | 88% | 1017.3 hPa | 0 mm | - | - | - |
| 1787425681 | 13.33° C | 86% | 1017.1 hPa | 0 mm | - | - | - |
| 1787424782 | 13.89° C | 83% | 1016.9 hPa | 0 mm | - | - | - |
| 1787422983 | 15.56° C | 74% | 1016.5 hPa | 0 mm | - | - | - |
| 1787422081 | 16.11° C | 70% | 1016.2 hPa | 0 mm | - | - | - |
| 1787420281 | 16.67° C | 67% | 1015.9 hPa | 0 mm | - | - | - |
* Rain latest hour (hover to see other rain measurements)
** Current wind speed in m/s (hover to see current wind gust speed)